»·PEaware :: N56694 KSFO-KSBA

N56694 :: KSFO-KSBA

FLIGHT INFORMATION

Flight Status: Arrived
Operator: Privately registered:
United States
More flights under this callsign
Pilot: Michael M. (12217)
Aircraft: Unknown
(EPIC)
More flights by this aircraft type
Origin: KSFO San Francisco Intl
United States
Destination: KSBA Santa Barbara Mun
United States
More flights between these airports :: More routes between these airports
Route: GAP7 NORMM BSR J501 RZS
File this flight plan on PilotEdge
Remarks:
Altitude:
(Current/Filed)
23,000ft
Speed:
(Current/Filed)
250kts
Departed: 23-Sep-16 05:38 PM
Arrived: 23-Sep-16 07:02 PM
Distance/Time
Traveled:
228nm/1:24
Distance/Time
To Go:
Arrived

Flight Plot

Page will automatically refresh every two minutes.


Map Options




Map Legend


Flown Route
Filed Route
Departure Airport
Arrival Airport
Navaid (VOR, NDB)
Fix

Horizontal Profiles

Position Reports

Time Latitude Longitude Heading Altitude Ground
Speed
23-Sep-16 16:52 37.627693 -122.384293 267 17ft 0kts
23-Sep-16 16:53 37.627693 -122.384293 267 17ft 0kts
23-Sep-16 16:54 37.627693 -122.384293 267 17ft 0kts
23-Sep-16 16:55 37.627693 -122.384293 267 17ft 0kts
23-Sep-16 16:56 37.627693 -122.384293 267 17ft 0kts
23-Sep-16 16:57 37.627693 -122.384293 267 17ft 0kts
23-Sep-16 16:58 37.627693 -122.384293 267 17ft 0kts
23-Sep-16 16:59 37.627693 -122.384293 267 17ft 0kts
23-Sep-16 17:00 37.627693 -122.384293 267 17ft 0kts
23-Sep-16 17:01 37.627693 -122.384293 267 17ft 0kts
23-Sep-16 17:02 37.627693 -122.384293 267 17ft 0kts
23-Sep-16 17:03 37.627693 -122.384293 267 17ft 0kts
23-Sep-16 17:04 37.627693 -122.384293 267 17ft 0kts
23-Sep-16 17:05 37.627693 -122.384293 267 17ft 0kts
23-Sep-16 17:06 37.627693 -122.384293 267 17ft 0kts
23-Sep-16 17:07 37.627693 -122.384293 267 17ft 0kts
23-Sep-16 17:08 37.627693 -122.384293 267 17ft 0kts
23-Sep-16 17:09 37.627693 -122.384293 267 17ft 0kts
23-Sep-16 17:10 37.627693 -122.384293 267 17ft 0kts
23-Sep-16 17:11 37.627693 -122.384293 267 17ft 0kts
23-Sep-16 17:12 37.627693 -122.384293 267 17ft 0kts
23-Sep-16 17:13 37.627693 -122.384293 267 17ft 0kts
23-Sep-16 17:14 37.627693 -122.384293 267 17ft 0kts
23-Sep-16 17:15 37.627693 -122.384293 267 17ft 0kts
23-Sep-16 17:16 37.627693 -122.384293 267 17ft 0kts
23-Sep-16 17:17 37.627693 -122.384293 267 17ft 0kts
23-Sep-16 17:18 37.627693 -122.384293 267 17ft 0kts
23-Sep-16 17:19 37.627693 -122.384293 267 17ft 0kts
23-Sep-16 17:20 37.627693 -122.384293 267 17ft 0kts
23-Sep-16 17:21 37.627693 -122.384293 267 17ft 0kts
23-Sep-16 17:22 37.627693 -122.384293 267 17ft 0kts
23-Sep-16 17:23 37.627693 -122.384293 267 17ft 0kts
23-Sep-16 17:24 37.627693 -122.384293 267 17ft 0kts
23-Sep-16 17:25 37.627693 -122.384293 267 17ft 0kts
23-Sep-16 17:26 37.627693 -122.384293 267 17ft 0kts
23-Sep-16 17:27 37.627398 -122.385015 212 17ft 10kts
23-Sep-16 17:28 37.624458 -122.379327 118 17ft 29kts
23-Sep-16 17:29 37.620786 -122.370668 118 17ft 31kts
23-Sep-16 17:30 37.616723 -122.360988 118 17ft 31kts
23-Sep-16 17:31 37.614252 -122.356858 208 17ft 0kts
23-Sep-16 17:32 37.614252 -122.356858 208 17ft 0kts
23-Sep-16 17:33 37.614252 -122.356858 208 17ft 0kts
23-Sep-16 17:34 37.614252 -122.356858 208 17ft 0kts
23-Sep-16 17:35 37.613987 -122.358597 299 17ft 57kts
23-Sep-16 17:36 37.630291 -122.396314 298 403ft 190kts
23-Sep-16 17:37 37.650478 -122.445576 296 1692ft 195kts
23-Sep-16 17:38 37.674966 -122.507401 296 1930ft 214kts
23-Sep-16 17:39 37.699167 -122.569676 296 2033ft 216kts
23-Sep-16 17:40 37.722700 -122.631559 294 3252ft 198kts
23-Sep-16 17:41 37.684660 -122.652434 132 4745ft 260kts
23-Sep-16 17:42 37.641625 -122.577901 137 6204ft 286kts
23-Sep-16 17:43 37.582838 -122.527250 153 7552ft 289kts
23-Sep-16 17:44 37.515587 -122.481997 156 8995ft 287kts
23-Sep-16 17:45 37.469667 -122.452328 157 9984ft 282kts
23-Sep-16 17:46 37.402354 -122.409211 156 11459ft 274kts
23-Sep-16 17:47 37.336699 -122.367257 156 12929ft 268kts
23-Sep-16 17:48 37.276978 -122.328820 156 14272ft 268kts
23-Sep-16 17:49 37.214377 -122.288740 156 15672ft 267kts
23-Sep-16 17:50 37.152357 -122.249300 156 17064ft 265kts
23-Sep-16 17:51 37.089509 -122.209439 156 18676ft 258kts
23-Sep-16 17:52 37.028964 -122.171123 156 20273ft 254kts
23-Sep-16 17:53 36.967046 -122.132002 156 21930ft 249kts
23-Sep-16 17:54 36.908933 -122.095364 156 22970ft 250kts
23-Sep-16 17:55 36.849403 -122.057892 155 22985ft 266kts
23-Sep-16 17:56 36.782984 -122.016165 155 22981ft 270kts
23-Sep-16 17:57 36.753706 -121.997788 155 22983ft 271kts
23-Sep-16 17:58 36.687821 -121.956502 155 22982ft 272kts
23-Sep-16 17:59 36.624009 -121.916592 155 22980ft 272kts
23-Sep-16 18:00 36.557414 -121.875020 156 22984ft 272kts
23-Sep-16 18:01 36.493688 -121.835317 155 22981ft 272kts
23-Sep-16 18:02 36.426481 -121.793522 155 22982ft 272kts
23-Sep-16 18:03 36.359067 -121.751686 155 22982ft 272kts
23-Sep-16 18:04 36.291886 -121.710068 155 22982ft 272kts
23-Sep-16 18:05 36.224652 -121.668500 155 22981ft 272kts
23-Sep-16 18:06 36.161369 -121.618426 141 22978ft 276kts
23-Sep-16 18:07 36.104876 -121.554229 140 22977ft 276kts
23-Sep-16 18:08 36.049228 -121.490435 140 22977ft 276kts
23-Sep-16 18:09 35.993225 -121.426254 140 22979ft 276kts
23-Sep-16 18:10 35.937127 -121.362102 140 22978ft 276kts
23-Sep-16 18:11 35.886469 -121.303777 140 22981ft 276kts
23-Sep-16 18:12 35.830072 -121.239350 140 22982ft 276kts
23-Sep-16 18:13 35.776504 -121.178395 141 21558ft 264kts
23-Sep-16 18:14 35.724822 -121.119724 141 19569ft 243kts
23-Sep-16 18:15 35.677713 -121.066336 142 17595ft 223kts
23-Sep-16 18:16 35.635867 -121.018997 143 15677ft 207kts
23-Sep-16 18:17 35.595083 -120.972933 143 13696ft 197kts
23-Sep-16 18:18 35.554380 -120.927058 143 12983ft 209kts
23-Sep-16 18:19 35.511784 -120.879077 143 12981ft 208kts
23-Sep-16 18:20 35.470895 -120.833091 143 12981ft 207kts
23-Sep-16 18:21 35.428757 -120.785772 143 12981ft 207kts
23-Sep-16 18:22 35.386905 -120.738843 143 12980ft 207kts
23-Sep-16 18:23 35.346171 -120.693234 143 12980ft 207kts
23-Sep-16 18:24 35.304370 -120.646502 143 12928ft 209kts
23-Sep-16 18:25 35.262862 -120.600124 143 11089ft 212kts
23-Sep-16 18:26 35.220051 -120.552457 143 9139ft 210kts
23-Sep-16 18:27 35.177274 -120.504853 143 8985ft 219kts
23-Sep-16 18:28 35.130885 -120.453286 142 8983ft 231kts
23-Sep-16 18:29 35.084926 -120.402275 142 8983ft 235kts
23-Sep-16 18:30 35.041778 -120.354467 142 8982ft 235kts
23-Sep-16 18:31 35.001126 -120.309032 143 8977ft 231kts
23-Sep-16 18:32 34.954734 -120.257612 143 8978ft 223kts
23-Sep-16 18:33 34.909491 -120.207686 143 8978ft 221kts
23-Sep-16 18:34 34.867000 -120.160891 143 8982ft 220kts
23-Sep-16 18:35 34.829096 -120.119241 143 8737ft 232kts
23-Sep-16 18:36 34.773961 -120.058726 141 7305ft 223kts
23-Sep-16 18:37 34.739100 -120.020522 139 6013ft 188kts
23-Sep-16 18:38 34.702169 -119.979966 140 5980ft 126kts
23-Sep-16 18:39 34.679405 -119.955070 140 5981ft 134kts
23-Sep-16 18:40 34.651772 -119.924864 140 5981ft 133kts
23-Sep-16 18:41 34.623498 -119.894011 140 5990ft 153kts
23-Sep-16 18:42 34.591238 -119.858863 139 5657ft 173kts
23-Sep-16 18:43 34.555980 -119.820462 138 4990ft 161kts
23-Sep-16 18:44 34.527975 -119.789940 138 4978ft 126kts
23-Sep-16 18:45 34.500709 -119.778245 216 5048ft 117kts
23-Sep-16 18:46 34.467181 -119.785970 130 4979ft 157kts
23-Sep-16 18:47 34.449409 -119.738107 112 4976ft 149kts
23-Sep-16 18:48 34.434075 -119.695185 112 4981ft 135kts
23-Sep-16 18:49 34.419813 -119.655347 112 4982ft 134kts
23-Sep-16 18:50 34.405052 -119.614131 112 4982ft 134kts
23-Sep-16 18:51 34.376631 -119.616224 222 4717ft 141kts
23-Sep-16 18:52 34.362326 -119.656514 301 3311ft 153kts
23-Sep-16 18:53 34.381507 -119.693460 307 2451ft 100kts
23-Sep-16 18:54 34.393930 -119.720757 293 1518ft 109kts
23-Sep-16 18:55 34.403183 -119.756690 283 1081ft 122kts
23-Sep-16 18:56 34.414898 -119.791920 296 912ft 113kts
23-Sep-16 18:57 34.426568 -119.820504 281 308ft 86kts
23-Sep-16 18:58 34.427386 -119.844706 267 17ft 44kts
23-Sep-16 18:59 34.426705 -119.846337 181 17ft 0kts
23-Sep-16 19:00 34.426318 -119.844888 87 17ft 22kts
23-Sep-16 19:01 34.426441 -119.836011 119 17ft 11kts
23-Sep-16 19:02 34.425503 -119.836433 190 17ft 0kts
23-Sep-16 19:03 34.425503 -119.836433 190 17ft 0kts
23-Sep-16 19:04 34.425503 -119.836433 190 17ft 0kts

Navigation Log

Ident Type
Flight plan parsing failed, navigation log unavailable